Time;durP1;ratioP1;P1;durP2;ratioP2;P2;SDS_P1;SDS_P2;PMS_P1;PMS_P2;Temp;Humidity;BMP_temperature;BMP_pressure;BME280_temperature;BME280_humidity;BME280_pressure;Samples;Min_cycle;Max_cycle;Signal;HPM_P1;HPM_P2
2023/07/05 00:06:19;;;;;;;;;;;;;;;30.54;89.84;100176.31;31613877;28;20070;-79
2023/07/05 00:21:21;;;;;;;10.63;7.47;;;;;;;30.24;87.14;100175.47;31634397;28;19920;-79
2023/07/05 00:36:23;;;;;;;8.57;7.30;;;;;;;29.88;92.31;100169.88;31656552;28;20056;-78
2023/07/05 00:51:47;;;;;;;14.30;7.73;;;;;;;29.75;100.00;100154.72;31643533;28;20407;-77
2023/07/05 01:06:49;;;;;;;14.77;8.00;;;;;;;29.55;100.00;100151.94;31618417;28;20052;-81
2023/07/05 01:22:02;;;;;;;11.40;7.37;;;;;;;29.48;100.00;100131.78;31537578;28;20045;-80
2023/07/05 01:37:07;;;;;;;11.32;7.18;;;;;;;29.42;100.00;100145.16;31466411;28;20055;-81
2023/07/05 01:52:19;;;;;;;16.92;7.70;;;;;;;29.39;100.00;100142.69;31530858;28;20044;-78
2023/07/05 02:07:29;;;;;;;9.50;6.90;;;;;;;29.37;100.00;100148.81;31535970;28;20055;-81
2023/07/05 02:22:32;;;;;;;12.23;8.15;;;;;;;29.31;100.00;100159.41;31560114;28;20049;-81
2023/07/05 02:37:35;;;;;;;8.15;6.63;;;;;;;29.36;100.00;100152.91;31531585;28;20041;-78
2023/07/05 02:52:37;;;;;;;9.63;7.55;;;;;;;29.46;100.00;100153.22;31565458;28;20056;-81
2023/07/05 03:07:39;;;;;;;15.03;9.07;;;;;;;29.65;100.00;100161.34;31518696;28;20056;-78
2023/07/05 03:22:41;;;;;;;14.07;9.80;;;;;;;29.98;100.00;100162.47;31594294;28;20055;-81
2023/07/05 03:37:43;;;;;;;14.63;8.77;;;;;;;30.15;100.00;100151.56;31690440;28;20047;-81
2023/07/05 03:52:45;;;;;;;;;;;;;;;31.23;100.00;100164.50;31606939;28;20054;-77
2023/07/05 04:07:47;;;;;;;13.48;9.65;;;;;;;31.40;100.00;100162.66;31598701;28;19920;-81
2023/07/05 04:22:57;;;;;;;14.85;8.75;;;;;;;32.24;93.19;100170.13;31519720;28;20052;-81
2023/07/05 04:38:15;;;;;;;17.05;8.32;;;;;;;32.66;90.89;100189.94;31524726;28;20041;-81
2023/07/05 04:53:17;;;;;;;15.90;8.95;;;;;;;33.00;85.32;100203.44;31457766;28;20489;-78
2023/07/05 05:08:24;;;;;;;14.52;9.70;;;;;;;33.44;83.68;100204.41;31438282;28;20076;-78
2023/07/05 05:23:26;;;;;;;15.45;9.35;;;;;;;34.01;78.63;100214.78;31560867;28;20067;-78
2023/07/05 05:38:29;;;;;;;15.30;8.23;;;;;;;34.22;79.72;100206.63;31598551;28;20117;-82
2023/07/05 05:53:31;;;;;;;18.90;11.25;;;;;;;35.12;76.76;100202.41;31595972;28;20056;-82
2023/07/05 06:08:33;;;;;;;14.15;8.57;;;;;;;35.32;76.05;100198.34;31584865;28;20056;-88
2023/07/05 06:23:35;;;;;;;15.95;8.40;;;;;;;35.84;72.03;100200.81;31499241;28;20060;-85
2023/07/05 06:38:43;;;;;;;26.17;13.05;;;;;;;36.27;67.04;100187.00;31485279;28;20479;-87
2023/07/05 06:53:45;;;;;;;15.93;10.00;;;;;;;36.67;63.84;100194.78;31557262;28;20056;-84
2023/07/05 07:08:50;;;;;;;19.00;9.70;;;;;;;37.08;61.81;100189.88;31484606;28;20041;-84
2023/07/05 07:23:52;;;;;;;15.65;7.53;;;;;;;37.83;55.13;100175.09;31611939;28;20055;-88
2023/07/05 07:38:56;;;;;;;11.95;5.78;;;;;;;38.49;51.70;100175.09;31673656;28;20043;-84
2023/07/05 07:53:58;;;;;;;10.57;4.93;;;;;;;38.74;46.13;100175.25;31656196;28;20508;-83
2023/07/05 08:09:00;;;;;;;11.55;4.90;;;;;;;39.50;45.42;100169.94;31617296;28;20056;-84
2023/07/05 08:24:04;;;;;;;10.38;5.38;;;;;;;39.53;44.05;100157.31;31529812;28;20087;-84
2023/07/05 08:39:26;;;;;;;11.65;6.55;;;;;;;39.98;44.01;100154.19;31486334;28;20055;-83
2023/07/05 08:54:33;;;;;;;12.23;4.70;;;;;;;41.06;39.64;100145.81;31519126;28;20048;-83
2023/07/05 09:09:45;;;;;;;13.23;6.57;;;;;;;41.38;37.73;100136.06;31531136;28;20048;-83
2023/07/05 09:24:47;;;;;;;6.65;4.32;;;;;;;41.29;37.42;100122.81;31579199;28;20060;-85
2023/07/05 09:40:15;;;;;;;7.40;3.70;;;;;;;42.78;34.64;100121.97;31616499;28;20074;-83
2023/07/05 09:55:20;;;;;;;11.32;4.68;;;;;;;42.95;34.07;100117.75;31618171;28;20101;-85
2023/07/05 10:10:27;;;;;;;5.90;3.75;;;;;;;43.04;35.12;100111.00;31665433;28;20044;-84
2023/07/05 10:25:33;;;;;;;4.80;4.10;;;;;;;43.35;34.18;100107.31;31564451;28;20585;-84
2023/07/05 10:40:38;;;;;;;9.20;3.92;;;;;;;42.51;33.52;100100.13;31560297;28;20123;-84
2023/07/05 10:56:13;;;;;;;7.00;3.90;;;;;;;45.43;31.37;100097.22;31533216;28;20055;-85
2023/07/05 11:11:23;;;;;;;7.33;3.57;;;;;;;42.79;32.45;100089.94;31525781;28;20556;-84
2023/07/05 11:26:32;;;;;;;11.88;3.92;;;;;;;41.52;34.86;100085.50;31632999;28;20079;-86
2023/07/05 11:41:40;;;;;;;6.57;3.45;;;;;;;40.54;35.96;100076.22;31631903;28;20044;-84
2023/07/05 11:56:44;;;;;;;6.40;3.77;;;;;;;40.12;35.94;100066.88;31610432;28;20141;-82
2023/07/05 12:11:54;;;;;;;12.25;4.05;;;;;;;39.80;36.48;100059.38;31634969;28;20085;-82
2023/07/05 12:26:57;;;;;;;9.10;4.18;;;;;;;39.74;35.96;100044.84;31628244;28;20138;-83
2023/07/05 12:42:03;;;;;;;11.68;3.60;;;;;;;40.55;35.08;100037.88;31639149;28;20051;-85
2023/07/05 13:13:35;;;;;;;7.47;4.80;;;;;;;40.02;34.96;100018.00;31705550;28;20051;-85
2023/07/05 13:28:40;;;;;;;13.45;3.60;;;;;;;39.87;35.31;99998.69;31533557;28;20115;-87
2023/07/05 13:43:42;;;;;;;8.55;3.40;;;;;;;39.54;37.22;100004.69;31499441;28;20056;-84
2023/07/05 13:58:47;;;;;;;9.18;3.22;;;;;;;39.98;36.71;99983.69;31549969;28;20063;-95
2023/07/05 14:13:54;;;;;;;12.23;3.47;;;;;;;39.83;35.77;99970.06;31577670;28;20060;-91
2023/07/05 14:29:00;;;;;;;4.22;2.60;;;;;;;39.53;35.65;99952.09;31627850;28;20044;-87
2023/07/05 14:44:02;;;;;;;6.45;2.95;;;;;;;39.67;34.93;99944.38;31688355;28;20056;-86
2023/07/05 15:15:36;;;;;;;8.40;3.53;;;;;;;39.24;36.00;99944.09;31614409;28;20052;-83
2023/07/05 15:30:39;;;;;;;8.40;2.90;;;;;;;39.07;36.86;99947.38;31511513;28;20123;-81
2023/07/05 15:45:41;;;;;;;4.80;3.65;;;;;;;38.69;37.40;99943.06;31499299;28;20172;-80
2023/07/05 16:00:47;;;;;;;8.18;3.00;;;;;;;38.58;38.18;99927.53;31524891;28;20044;-84
2023/07/05 16:15:59;;;;;;;9.13;3.40;;;;;;;38.89;38.46;99927.94;31556553;28;20059;-85
2023/07/05 16:48:10;;;;;;;11.88;5.07;;;;;;;37.63;41.98;99935.91;31598991;28;20055;-84
2023/07/05 17:03:13;;;;;;;7.68;4.32;;;;;;;37.60;42.15;99942.78;31538179;28;20051;-86
2023/07/05 18:38:47;;;;;;;8.35;5.22;;;;;;;35.66;55.10;99990.53;31579765;27;20467;-76
2023/07/05 18:53:49;;;;;;;11.38;5.00;;;;;;;35.62;54.04;99993.06;31556866;28;20399;-77
2023/07/05 19:08:55;;;;;;;13.82;5.78;;;;;;;35.40;54.43;99995.03;31574687;28;20052;-75
2023/07/05 19:23:57;;;;;;;14.88;5.82;;;;;;;34.99;55.75;99997.66;31567497;28;20080;-76
2023/07/05 19:38:59;;;;;;;10.48;6.53;;;;;;;34.91;55.82;99999.91;31490085;28;20087;-78
2023/07/05 19:54:02;;;;;;;15.05;6.88;;;;;;;34.64;57.37;100008.41;31487724;28;20079;-77
2023/07/05 20:09:04;;;;;;;27.13;16.70;;;;;;;34.17;59.30;99996.38;31513915;28;20049;-81
2023/07/05 20:24:07;;;;;;;21.38;13.70;;;;;;;33.99;61.49;100003.41;31520813;28;20111;-80
2023/07/05 20:39:09;;;;;;;24.13;10.20;;;;;;;33.64;64.00;100004.78;31544026;28;20048;-81
2023/07/05 20:54:19;;;;;;;24.55;11.32;;;;;;;33.54;67.88;99999.13;31574803;28;20108;-85
2023/07/05 21:09:33;;;;;;;;;;;;;;;;;;;;;
2023/07/05 21:25:11;;;;;;;31.08;13.18;;;;;;;33.27;74.21;99996.25;31402576;28;20060;-86
2023/07/05 21:40:39;;;;;;;11.95;7.57;;;;;;;32.93;75.43;99987.78;31479685;28;20108;-82
2023/07/05 21:56:03;;;;;;;16.63;7.68;;;;;;;32.92;75.34;99991.91;31477330;28;20068;-83
2023/07/05 22:11:51;;;;;;;17.50;7.47;;;;;;;32.68;78.84;99985.72;31509423;28;20086;-82
2023/07/05 22:27:23;;;;;;;15.50;8.03;;;;;;;32.72;78.67;100002.94;31364177;28;20076;-84
2023/07/05 22:42:32;;;;;;;14.25;7.60;;;;;;;32.40;79.56;100005.81;31399305;28;20041;-82
2023/07/05 22:57:44;;;;;;;14.50;7.93;;;;;;;32.07;79.42;100005.84;31419514;28;20057;-84
2023/07/05 23:28:53;;;;;;;14.63;9.88;;;;;;;31.50;90.05;100005.72;31405763;28;20049;-82
2023/07/05 23:44:06;;;;;;;17.60;8.95;;;;;;;31.34;99.03;99991.00;31429492;28;20056;-83
2023/07/05 23:59:22;;;;;;;21.67;9.23;;;;;;;31.44;98.02;99989.09;31377240;28;20072;-82
